sensor_id;sensor_type;location;lat;lon;timestamp;temperature;humidity
18335;DHT22;9293;49.524;10.964;2022-10-22T00:01:13;12.70;99.90
18335;DHT22;9293;49.524;10.964;2022-10-22T00:03:41;12.70;99.90
18335;DHT22;9293;49.524;10.964;2022-10-22T00:06:09;12.70;99.90
18335;DHT22;9293;49.524;10.964;2022-10-22T00:08:37;12.70;99.90
18335;DHT22;9293;49.524;10.964;2022-10-22T00:11:25;12.70;99.90
18335;DHT22;9293;49.524;10.964;2022-10-22T00:13:53;12.80;99.90
18335;DHT22;9293;49.524;10.964;2022-10-22T00:16:21;12.80;99.90
18335;DHT22;9293;49.524;10.964;2022-10-22T00:18:50;12.80;99.90
18335;DHT22;9293;49.524;10.964;2022-10-22T00:21:18;12.80;99.90
18335;DHT22;9293;49.524;10.964;2022-10-22T00:23:46;12.80;99.90
18335;DHT22;9293;49.524;10.964;2022-10-22T00:26:14;12.70;99.90
18335;DHT22;9293;49.524;10.964;2022-10-22T00:28:42;12.70;99.90
18335;DHT22;9293;49.524;10.964;2022-10-22T00:31:10;12.70;99.90
18335;DHT22;9293;49.524;10.964;2022-10-22T00:33:38;12.60;99.90
18335;DHT22;9293;49.524;10.964;2022-10-22T00:36:07;12.60;99.90
18335;DHT22;9293;49.524;10.964;2022-10-22T00:38:35;12.60;99.90
18335;DHT22;9293;49.524;10.964;2022-10-22T00:41:03;12.60;99.90
18335;DHT22;9293;49.524;10.964;2022-10-22T00:43:31;12.60;99.90
18335;DHT22;9293;49.524;10.964;2022-10-22T00:45:59;12.70;99.90
18335;DHT22;9293;49.524;10.964;2022-10-22T00:48:31;12.70;99.90
18335;DHT22;9293;49.524;10.964;2022-10-22T00:51:05;12.70;99.90
18335;DHT22;9293;49.524;10.964;2022-10-22T00:53:37;12.70;99.90
18335;DHT22;9293;49.524;10.964;2022-10-22T00:56:06;12.80;99.90
18335;DHT22;9293;49.524;10.964;2022-10-22T00:59:52;12.80;99.90
18335;DHT22;9293;49.524;10.964;2022-10-22T01:02:21;12.80;99.90
18335;DHT22;9293;49.524;10.964;2022-10-22T01:04:49;12.80;99.90
18335;DHT22;9293;49.524;10.964;2022-10-22T01:07:19;12.80;99.90
18335;DHT22;9293;49.524;10.964;2022-10-22T01:13:00;12.80;99.90
18335;DHT22;9293;49.524;10.964;2022-10-22T01:15:40;12.80;99.90
18335;DHT22;9293;49.524;10.964;2022-10-22T01:30:05;12.90;99.90
18335;DHT22;9293;49.524;10.964;2022-10-22T01:32:40;12.90;99.90
18335;DHT22;9293;49.524;10.964;2022-10-22T01:35:11;12.90;99.90
18335;DHT22;9293;49.524;10.964;2022-10-22T01:37:46;12.90;99.90
18335;DHT22;9293;49.524;10.964;2022-10-22T01:40:16;13.00;99.90
18335;DHT22;9293;49.524;10.964;2022-10-22T01:43:14;13.00;99.90
18335;DHT22;9293;49.524;10.964;2022-10-22T01:45:47;13.10;99.90
18335;DHT22;9293;49.524;10.964;2022-10-22T01:54:30;13.20;99.90
18335;DHT22;9293;49.524;10.964;2022-10-22T01:59:48;13.30;99.90
18335;DHT22;9293;49.524;10.964;2022-10-22T02:05:36;13.30;99.90
18335;DHT22;9293;49.524;10.964;2022-10-22T02:08:09;13.30;99.90
18335;DHT22;9293;49.524;10.964;2022-10-22T02:10:39;13.30;99.90
18335;DHT22;9293;49.524;10.964;2022-10-22T02:13:15;13.20;99.90
18335;DHT22;9293;49.524;10.964;2022-10-22T02:15:45;13.30;99.90
18335;DHT22;9293;49.524;10.964;2022-10-22T02:18:17;13.20;99.90
18335;DHT22;9293;49.524;10.964;2022-10-22T02:20:46;13.20;99.90
18335;DHT22;9293;49.524;10.964;2022-10-22T02:23:15;13.30;99.90
18335;DHT22;9293;49.524;10.964;2022-10-22T02:25:48;13.20;99.90
18335;DHT22;9293;49.524;10.964;2022-10-22T02:31:20;13.20;99.90
18335;DHT22;9293;49.524;10.964;2022-10-22T02:33:53;13.20;99.90
18335;DHT22;9293;49.524;10.964;2022-10-22T02:36:23;13.20;99.90
18335;DHT22;9293;49.524;10.964;2022-10-22T02:38:52;13.20;99.90
18335;DHT22;9293;49.524;10.964;2022-10-22T02:41:22;13.20;99.90
18335;DHT22;9293;49.524;10.964;2022-10-22T02:43:53;13.20;99.90
18335;DHT22;9293;49.524;10.964;2022-10-22T02:46:22;13.20;99.90
18335;DHT22;9293;49.524;10.964;2022-10-22T02:48:50;13.20;99.90
18335;DHT22;9293;49.524;10.964;2022-10-22T02:51:18;13.10;99.90
18335;DHT22;9293;49.524;10.964;2022-10-22T02:53:47;13.20;99.90
18335;DHT22;9293;49.524;10.964;2022-10-22T02:56:16;13.10;99.90
18335;DHT22;9293;49.524;10.964;2022-10-22T02:58:44;13.10;99.90
18335;DHT22;9293;49.524;10.964;2022-10-22T03:01:12;13.10;99.90
18335;DHT22;9293;49.524;10.964;2022-10-22T03:03:42;13.10;99.90
18335;DHT22;9293;49.524;10.964;2022-10-22T03:06:09;13.00;99.90
18335;DHT22;9293;49.524;10.964;2022-10-22T03:08:37;13.00;99.90
18335;DHT22;9293;49.524;10.964;2022-10-22T03:11:05;13.00;99.90
18335;DHT22;9293;49.524;10.964;2022-10-22T03:13:33;13.00;99.90
18335;DHT22;9293;49.524;10.964;2022-10-22T03:16:02;13.10;99.90
18335;DHT22;9293;49.524;10.964;2022-10-22T03:18:31;13.10;99.90
18335;DHT22;9293;49.524;10.964;2022-10-22T03:21:27;13.10;99.90
18335;DHT22;9293;49.524;10.964;2022-10-22T03:23:57;13.10;99.90
18335;DHT22;9293;49.524;10.964;2022-10-22T03:26:26;13.10;99.90
18335;DHT22;9293;49.524;10.964;2022-10-22T03:28:54;13.10;99.90
18335;DHT22;9293;49.524;10.964;2022-10-22T03:31:22;13.00;99.90
18335;DHT22;9293;49.524;10.964;2022-10-22T03:33:50;13.00;99.90
18335;DHT22;9293;49.524;10.964;2022-10-22T03:36:17;13.10;99.90
18335;DHT22;9293;49.524;10.964;2022-10-22T03:38:46;13.00;99.90
18335;DHT22;9293;49.524;10.964;2022-10-22T03:41:14;13.00;99.90
18335;DHT22;9293;49.524;10.964;2022-10-22T03:43:42;13.00;99.90
18335;DHT22;9293;49.524;10.964;2022-10-22T03:46:10;13.00;99.90
18335;DHT22;9293;49.524;10.964;2022-10-22T03:48:37;13.00;99.90
18335;DHT22;9293;49.524;10.964;2022-10-22T03:51:05;13.00;99.90
18335;DHT22;9293;49.524;10.964;2022-10-22T03:53:33;13.00;99.90
18335;DHT22;9293;49.524;10.964;2022-10-22T03:56:01;13.00;99.90
18335;DHT22;9293;49.524;10.964;2022-10-22T03:58:29;13.00;99.90
18335;DHT22;9293;49.524;10.964;2022-10-22T04:01:03;13.00;99.90
18335;DHT22;9293;49.524;10.964;2022-10-22T04:03:32;13.00;99.90
18335;DHT22;9293;49.524;10.964;2022-10-22T04:06:05;13.00;99.90
18335;DHT22;9293;49.524;10.964;2022-10-22T04:08:33;13.00;99.90
18335;DHT22;9293;49.524;10.964;2022-10-22T04:11:02;13.00;99.90
18335;DHT22;9293;49.524;10.964;2022-10-22T04:13:30;12.90;99.90
18335;DHT22;9293;49.524;10.964;2022-10-22T04:16:15;12.90;99.90
18335;DHT22;9293;49.524;10.964;2022-10-22T04:18:46;12.90;99.90
18335;DHT22;9293;49.524;10.964;2022-10-22T04:21:18;12.90;99.90
18335;DHT22;9293;49.524;10.964;2022-10-22T04:23:52;12.90;99.90
18335;DHT22;9293;49.524;10.964;2022-10-22T04:26:19;12.90;99.90
18335;DHT22;9293;49.524;10.964;2022-10-22T04:28:49;12.90;99.90
18335;DHT22;9293;49.524;10.964;2022-10-22T04:31:22;12.90;99.90
18335;DHT22;9293;49.524;10.964;2022-10-22T04:33:56;12.90;99.90
18335;DHT22;9293;49.524;10.964;2022-10-22T04:36:25;12.90;99.90
18335;DHT22;9293;49.524;10.964;2022-10-22T04:38:59;12.80;99.90
18335;DHT22;9293;49.524;10.964;2022-10-22T04:41:35;12.80;99.90
18335;DHT22;9293;49.524;10.964;2022-10-22T04:44:04;12.80;99.90
18335;DHT22;9293;49.524;10.964;2022-10-22T04:46:39;12.80;99.90
18335;DHT22;9293;49.524;10.964;2022-10-22T04:49:07;12.90;99.90
18335;DHT22;9293;49.524;10.964;2022-10-22T04:51:35;12.80;99.90
18335;DHT22;9293;49.524;10.964;2022-10-22T04:54:03;12.80;99.90
18335;DHT22;9293;49.524;10.964;2022-10-22T04:56:32;12.80;99.90
18335;DHT22;9293;49.524;10.964;2022-10-22T04:59:03;12.80;99.90
18335;DHT22;9293;49.524;10.964;2022-10-22T05:01:35;12.80;99.90
18335;DHT22;9293;49.524;10.964;2022-10-22T05:04:11;12.80;99.90
18335;DHT22;9293;49.524;10.964;2022-10-22T05:06:40;12.80;99.90
18335;DHT22;9293;49.524;10.964;2022-10-22T05:09:11;12.80;99.90
18335;DHT22;9293;49.524;10.964;2022-10-22T05:11:42;12.80;99.90
18335;DHT22;9293;49.524;10.964;2022-10-22T05:14:15;12.80;99.90
18335;DHT22;9293;49.524;10.964;2022-10-22T05:16:44;12.80;99.90
18335;DHT22;9293;49.524;10.964;2022-10-22T05:19:18;12.70;99.90
18335;DHT22;9293;49.524;10.964;2022-10-22T05:21:46;12.70;99.90
18335;DHT22;9293;49.524;10.964;2022-10-22T05:24:14;12.70;99.90
18335;DHT22;9293;49.524;10.964;2022-10-22T05:26:42;12.60;99.90
18335;DHT22;9293;49.524;10.964;2022-10-22T05:29:10;12.60;99.90
18335;DHT22;9293;49.524;10.964;2022-10-22T05:31:38;12.60;99.90
18335;DHT22;9293;49.524;10.964;2022-10-22T05:34:06;12.60;99.90
18335;DHT22;9293;49.524;10.964;2022-10-22T05:36:34;12.60;99.90
18335;DHT22;9293;49.524;10.964;2022-10-22T05:39:02;12.50;99.90
18335;DHT22;9293;49.524;10.964;2022-10-22T05:41:32;12.30;99.90
18335;DHT22;9293;49.524;10.964;2022-10-22T05:44:02;12.30;99.90
18335;DHT22;9293;49.524;10.964;2022-10-22T05:46:33;12.30;99.90
18335;DHT22;9293;49.524;10.964;2022-10-22T05:49:04;12.30;99.90
18335;DHT22;9293;49.524;10.964;2022-10-22T05:51:35;12.30;99.90
18335;DHT22;9293;49.524;10.964;2022-10-22T05:54:06;12.30;99.90
18335;DHT22;9293;49.524;10.964;2022-10-22T05:56:34;12.20;99.90
18335;DHT22;9293;49.524;10.964;2022-10-22T05:59:04;12.20;99.90
18335;DHT22;9293;49.524;10.964;2022-10-22T06:01:34;12.20;99.90
18335;DHT22;9293;49.524;10.964;2022-10-22T06:04:08;12.20;99.90
18335;DHT22;9293;49.524;10.964;2022-10-22T06:11:46;12.10;99.90
18335;DHT22;9293;49.524;10.964;2022-10-22T06:14:14;12.10;99.90
18335;DHT22;9293;49.524;10.964;2022-10-22T06:16:42;12.20;99.90
18335;DHT22;9293;49.524;10.964;2022-10-22T06:19:15;12.10;99.90
18335;DHT22;9293;49.524;10.964;2022-10-22T06:21:43;12.10;99.90
18335;DHT22;9293;49.524;10.964;2022-10-22T06:24:11;12.20;99.90
18335;DHT22;9293;49.524;10.964;2022-10-22T06:26:40;12.20;99.90
18335;DHT22;9293;49.524;10.964;2022-10-22T06:29:08;12.30;99.90
18335;DHT22;9293;49.524;10.964;2022-10-22T06:31:36;12.30;99.90
18335;DHT22;9293;49.524;10.964;2022-10-22T06:34:06;12.20;99.90
18335;DHT22;9293;49.524;10.964;2022-10-22T06:36:35;12.30;99.90
18335;DHT22;9293;49.524;10.964;2022-10-22T06:39:04;12.30;99.90
18335;DHT22;9293;49.524;10.964;2022-10-22T06:41:32;12.30;99.90
18335;DHT22;9293;49.524;10.964;2022-10-22T06:44:00;12.40;99.90
18335;DHT22;9293;49.524;10.964;2022-10-22T06:46:29;12.40;99.90
18335;DHT22;9293;49.524;10.964;2022-10-22T06:49:00;12.50;99.90
18335;DHT22;9293;49.524;10.964;2022-10-22T06:51:29;12.50;99.90
18335;DHT22;9293;49.524;10.964;2022-10-22T06:53:57;12.50;99.90
18335;DHT22;9293;49.524;10.964;2022-10-22T06:56:27;12.50;99.90
18335;DHT22;9293;49.524;10.964;2022-10-22T06:58:57;12.60;99.90
18335;DHT22;9293;49.524;10.964;2022-10-22T07:01:31;12.60;99.90
18335;DHT22;9293;49.524;10.964;2022-10-22T07:04:04;12.60;99.90
18335;DHT22;9293;49.524;10.964;2022-10-22T07:06:35;12.60;99.90
18335;DHT22;9293;49.524;10.964;2022-10-22T07:09:03;12.60;99.90
18335;DHT22;9293;49.524;10.964;2022-10-22T07:11:40;12.60;99.90
18335;DHT22;9293;49.524;10.964;2022-10-22T07:14:13;12.60;99.90
18335;DHT22;9293;49.524;10.964;2022-10-22T07:16:41;12.60;99.90
18335;DHT22;9293;49.524;10.964;2022-10-22T07:19:10;12.60;99.90
18335;DHT22;9293;49.524;10.964;2022-10-22T07:24:33;12.60;99.90
18335;DHT22;9293;49.524;10.964;2022-10-22T07:27:35;12.70;99.90
18335;DHT22;9293;49.524;10.964;2022-10-22T07:30:19;12.70;99.90
18335;DHT22;9293;49.524;10.964;2022-10-22T07:32:47;12.80;99.90
18335;DHT22;9293;49.524;10.964;2022-10-22T07:35:15;12.80;99.90
18335;DHT22;9293;49.524;10.964;2022-10-22T07:37:43;12.90;99.90
18335;DHT22;9293;49.524;10.964;2022-10-22T07:40:11;12.90;99.90
18335;DHT22;9293;49.524;10.964;2022-10-22T07:42:39;13.00;99.90
18335;DHT22;9293;49.524;10.964;2022-10-22T07:45:07;13.30;99.90
18335;DHT22;9293;49.524;10.964;2022-10-22T07:47:35;13.50;99.90
18335;DHT22;9293;49.524;10.964;2022-10-22T07:50:13;13.80;99.90
18335;DHT22;9293;49.524;10.964;2022-10-22T07:53:03;14.00;99.90
18335;DHT22;9293;49.524;10.964;2022-10-22T07:55:38;14.20;99.90
18335;DHT22;9293;49.524;10.964;2022-10-22T07:58:07;14.40;99.90
18335;DHT22;9293;49.524;10.964;2022-10-22T08:00:34;14.80;99.90
18335;DHT22;9293;49.524;10.964;2022-10-22T08:03:12;15.30;99.90
18335;DHT22;9293;49.524;10.964;2022-10-22T08:05:45;15.50;99.90
18335;DHT22;9293;49.524;10.964;2022-10-22T08:08:20;15.80;99.90
18335;DHT22;9293;49.524;10.964;2022-10-22T08:10:56;16.30;99.90
18335;DHT22;9293;49.524;10.964;2022-10-22T08:13:33;16.70;99.90
18335;DHT22;9293;49.524;10.964;2022-10-22T08:16:12;17.00;99.90
18335;DHT22;9293;49.524;10.964;2022-10-22T08:18:40;17.20;99.90
18335;DHT22;9293;49.524;10.964;2022-10-22T08:21:17;17.30;99.90
18335;DHT22;9293;49.524;10.964;2022-10-22T08:23:50;17.50;99.90
18335;DHT22;9293;49.524;10.964;2022-10-22T08:26:26;17.60;99.90
18335;DHT22;9293;49.524;10.964;2022-10-22T08:28:54;17.90;99.90
18335;DHT22;9293;49.524;10.964;2022-10-22T08:31:22;18.80;99.90
18335;DHT22;9293;49.524;10.964;2022-10-22T08:33:50;19.60;99.90
18335;DHT22;9293;49.524;10.964;2022-10-22T08:36:18;20.30;99.90
18335;DHT22;9293;49.524;10.964;2022-10-22T08:38:46;21.10;99.90
18335;DHT22;9293;49.524;10.964;2022-10-22T08:41:21;20.70;99.90
18335;DHT22;9293;49.524;10.964;2022-10-22T08:49:59;20.40;99.90
18335;DHT22;9293;49.524;10.964;2022-10-22T08:52:50;21.10;99.90
18335;DHT22;9293;49.524;10.964;2022-10-22T08:55:38;21.30;99.90
18335;DHT22;9293;49.524;10.964;2022-10-22T08:58:28;21.20;99.90
18335;DHT22;9293;49.524;10.964;2022-10-22T09:01:09;21.50;99.90
18335;DHT22;9293;49.524;10.964;2022-10-22T09:06:16;22.20;99.90
18335;DHT22;9293;49.524;10.964;2022-10-22T09:08:46;21.90;99.90
18335;DHT22;9293;49.524;10.964;2022-10-22T09:11:31;21.20;99.90
18335;DHT22;9293;49.524;10.964;2022-10-22T09:14:03;20.40;99.90
18335;DHT22;9293;49.524;10.964;2022-10-22T09:25:31;18.70;99.90
18335;DHT22;9293;49.524;10.964;2022-10-22T09:28:00;18.40;99.90
18335;DHT22;9293;49.524;10.964;2022-10-22T09:30:32;18.10;99.90
18335;DHT22;9293;49.524;10.964;2022-10-22T09:35:49;17.60;99.90
18335;DHT22;9293;49.524;10.964;2022-10-22T09:38:30;17.30;99.90
18335;DHT22;9293;49.524;10.964;2022-10-22T09:41:00;17.20;99.90
18335;DHT22;9293;49.524;10.964;2022-10-22T09:43:31;17.80;99.90
18335;DHT22;9293;49.524;10.964;2022-10-22T09:46:05;18.40;99.90
18335;DHT22;9293;49.524;10.964;2022-10-22T09:48:36;18.90;99.90
18335;DHT22;9293;49.524;10.964;2022-10-22T09:53:46;19.20;99.90
18335;DHT22;9293;49.524;10.964;2022-10-22T09:56:24;19.70;99.90
18335;DHT22;9293;49.524;10.964;2022-10-22T09:58:55;19.60;99.90
18335;DHT22;9293;49.524;10.964;2022-10-22T10:01:30;19.30;99.90
18335;DHT22;9293;49.524;10.964;2022-10-22T10:04:08;19.20;99.90
18335;DHT22;9293;49.524;10.964;2022-10-22T10:06:41;19.40;99.90
18335;DHT22;9293;49.524;10.964;2022-10-22T10:09:21;19.70;99.90
18335;DHT22;9293;49.524;10.964;2022-10-22T10:17:49;21.50;99.90
18335;DHT22;9293;49.524;10.964;2022-10-22T10:26:03;22.30;99.90
18335;DHT22;9293;49.524;10.964;2022-10-22T10:28:46;21.80;99.90
18335;DHT22;9293;49.524;10.964;2022-10-22T10:37:40;24.20;99.90
18335;DHT22;9293;49.524;10.964;2022-10-22T10:40:23;24.80;99.90
18335;DHT22;9293;49.524;10.964;2022-10-22T10:43:01;25.30;99.90
18335;DHT22;9293;49.524;10.964;2022-10-22T10:52:47;25.00;99.90
18335;DHT22;9293;49.524;10.964;2022-10-22T10:55:17;25.30;99.90
18335;DHT22;9293;49.524;10.964;2022-10-22T10:58:04;24.90;99.90
18335;DHT22;9293;49.524;10.964;2022-10-22T11:00:40;23.40;99.90
18335;DHT22;9293;49.524;10.964;2022-10-22T11:05:59;20.90;99.90
18335;DHT22;9293;49.524;10.964;2022-10-22T11:11:29;20.10;99.90
18335;DHT22;9293;49.524;10.964;2022-10-22T11:14:10;20.10;99.90
18335;DHT22;9293;49.524;10.964;2022-10-22T11:16:54;19.70;99.90
18335;DHT22;9293;49.524;10.964;2022-10-22T11:19:47;19.60;99.90
18335;DHT22;9293;49.524;10.964;2022-10-22T11:22:34;19.40;99.90
18335;DHT22;9293;49.524;10.964;2022-10-22T11:25:39;19.30;99.90
18335;DHT22;9293;49.524;10.964;2022-10-22T11:28:26;19.10;99.90
18335;DHT22;9293;49.524;10.964;2022-10-22T11:31:02;19.30;99.90
18335;DHT22;9293;49.524;10.964;2022-10-22T11:33:50;20.10;99.90
18335;DHT22;9293;49.524;10.964;2022-10-22T11:36:36;20.10;99.90
18335;DHT22;9293;49.524;10.964;2022-10-22T11:39:04;20.50;99.90
18335;DHT22;9293;49.524;10.964;2022-10-22T11:41:33;21.50;99.90
18335;DHT22;9293;49.524;10.964;2022-10-22T11:44:20;22.40;99.90
18335;DHT22;9293;49.524;10.964;2022-10-22T11:46:57;22.60;99.90
18335;DHT22;9293;49.524;10.964;2022-10-22T11:49:41;21.80;99.90
18335;DHT22;9293;49.524;10.964;2022-10-22T11:55:02;21.70;99.90
18335;DHT22;9293;49.524;10.964;2022-10-22T11:57:50;22.10;99.90
18335;DHT22;9293;49.524;10.964;2022-10-22T12:00:45;22.50;99.90
18335;DHT22;9293;49.524;10.964;2022-10-22T12:03:46;22.70;99.90
18335;DHT22;9293;49.524;10.964;2022-10-22T12:16:36;24.10;99.90
18335;DHT22;9293;49.524;10.964;2022-10-22T12:21:58;24.10;99.90
18335;DHT22;9293;49.524;10.964;2022-10-22T12:24:33;24.10;99.90
18335;DHT22;9293;49.524;10.964;2022-10-22T12:27:03;24.10;99.90
18335;DHT22;9293;49.524;10.964;2022-10-22T12:29:31;24.30;99.90
18335;DHT22;9293;49.524;10.964;2022-10-22T12:32:02;24.10;99.90
18335;DHT22;9293;49.524;10.964;2022-10-22T12:34:31;23.30;99.90
18335;DHT22;9293;49.524;10.964;2022-10-22T12:37:03;23.10;99.90
18335;DHT22;9293;49.524;10.964;2022-10-22T12:39:31;23.20;99.90
18335;DHT22;9293;49.524;10.964;2022-10-22T12:42:04;23.30;99.90
18335;DHT22;9293;49.524;10.964;2022-10-22T12:44:32;22.70;99.90
18335;DHT22;9293;49.524;10.964;2022-10-22T12:47:06;23.00;99.90
18335;DHT22;9293;49.524;10.964;2022-10-22T12:49:39;23.20;99.90
18335;DHT22;9293;49.524;10.964;2022-10-22T12:52:14;23.40;99.90
18335;DHT22;9293;49.524;10.964;2022-10-22T12:54:44;23.90;99.90
18335;DHT22;9293;49.524;10.964;2022-10-22T12:57:15;23.20;99.90
18335;DHT22;9293;49.524;10.964;2022-10-22T12:59:45;22.50;99.90
18335;DHT22;9293;49.524;10.964;2022-10-22T13:02:21;21.90;99.90
18335;DHT22;9293;49.524;10.964;2022-10-22T13:05:20;21.30;99.90
18335;DHT22;9293;49.524;10.964;2022-10-22T13:08:02;21.10;99.90
18335;DHT22;9293;49.524;10.964;2022-10-22T13:10:36;22.30;99.90
18335;DHT22;9293;49.524;10.964;2022-10-22T13:13:05;23.60;99.90
18335;DHT22;9293;49.524;10.964;2022-10-22T13:15:36;24.90;99.90
18335;DHT22;9293;49.524;10.964;2022-10-22T13:18:31;26.20;99.90
18335;DHT22;9293;49.524;10.964;2022-10-22T13:21:01;27.20;99.90
18335;DHT22;9293;49.524;10.964;2022-10-22T13:23:31;28.00;99.90
18335;DHT22;9293;49.524;10.964;2022-10-22T13:26:17;28.70;99.90
18335;DHT22;9293;49.524;10.964;2022-10-22T13:28:53;29.50;99.90
18335;DHT22;9293;49.524;10.964;2022-10-22T13:31:24;29.80;99.90
18335;DHT22;9293;49.524;10.964;2022-10-22T13:33:55;30.10;99.90
18335;DHT22;9293;49.524;10.964;2022-10-22T13:36:24;29.90;99.90
18335;DHT22;9293;49.524;10.964;2022-10-22T13:38:52;29.00;99.90
18335;DHT22;9293;49.524;10.964;2022-10-22T13:43:50;28.70;99.90
18335;DHT22;9293;49.524;10.964;2022-10-22T13:46:18;29.30;99.90
18335;DHT22;9293;49.524;10.964;2022-10-22T13:48:48;28.80;99.90
18335;DHT22;9293;49.524;10.964;2022-10-22T13:51:28;28.80;99.90
18335;DHT22;9293;49.524;10.964;2022-10-22T13:53:58;29.20;99.90
18335;DHT22;9293;49.524;10.964;2022-10-22T13:56:26;29.60;99.90
18335;DHT22;9293;49.524;10.964;2022-10-22T13:58:54;30.10;99.90
18335;DHT22;9293;49.524;10.964;2022-10-22T14:01:25;29.90;99.90
18335;DHT22;9293;49.524;10.964;2022-10-22T14:03:56;30.50;99.90
18335;DHT22;9293;49.524;10.964;2022-10-22T14:06:25;30.40;99.90
18335;DHT22;9293;49.524;10.964;2022-10-22T14:08:58;29.60;99.90
18335;DHT22;9293;49.524;10.964;2022-10-22T14:11:27;29.40;99.90
18335;DHT22;9293;49.524;10.964;2022-10-22T14:13:57;29.70;99.90
18335;DHT22;9293;49.524;10.964;2022-10-22T14:16:30;30.50;99.90
18335;DHT22;9293;49.524;10.964;2022-10-22T14:19:02;29.80;99.90
18335;DHT22;9293;49.524;10.964;2022-10-22T14:21:34;30.30;99.90
18335;DHT22;9293;49.524;10.964;2022-10-22T14:24:02;29.90;99.90
18335;DHT22;9293;49.524;10.964;2022-10-22T14:26:35;30.40;99.90
18335;DHT22;9293;49.524;10.964;2022-10-22T14:29:03;31.50;99.90
18335;DHT22;9293;49.524;10.964;2022-10-22T14:31:38;32.00;97.90
18335;DHT22;9293;49.524;10.964;2022-10-22T14:34:13;30.80;99.00
18335;DHT22;9293;49.524;10.964;2022-10-22T14:36:42;30.60;99.50
18335;DHT22;9293;49.524;10.964;2022-10-22T14:39:11;30.50;98.50
18335;DHT22;9293;49.524;10.964;2022-10-22T14:41:39;30.10;98.80
18335;DHT22;9293;49.524;10.964;2022-10-22T14:44:11;29.00;99.50
18335;DHT22;9293;49.524;10.964;2022-10-22T14:46:42;27.60;99.90
18335;DHT22;9293;49.524;10.964;2022-10-22T14:49:11;26.70;99.90
18335;DHT22;9293;49.524;10.964;2022-10-22T14:51:39;25.80;99.90
18335;DHT22;9293;49.524;10.964;2022-10-22T14:54:08;25.50;99.90
18335;DHT22;9293;49.524;10.964;2022-10-22T14:56:36;24.70;99.90
18335;DHT22;9293;49.524;10.964;2022-10-22T14:59:04;23.70;99.90
18335;DHT22;9293;49.524;10.964;2022-10-22T15:01:32;23.20;99.90
18335;DHT22;9293;49.524;10.964;2022-10-22T15:04:00;22.70;99.90
18335;DHT22;9293;49.524;10.964;2022-10-22T15:06:28;22.20;99.90
18335;DHT22;9293;49.524;10.964;2022-10-22T15:08:56;21.70;99.90
18335;DHT22;9293;49.524;10.964;2022-10-22T15:11:24;21.50;99.90
18335;DHT22;9293;49.524;10.964;2022-10-22T15:13:52;21.10;99.90
18335;DHT22;9293;49.524;10.964;2022-10-22T15:16:20;20.70;99.90
18335;DHT22;9293;49.524;10.964;2022-10-22T15:18:48;20.70;99.90
18335;DHT22;9293;49.524;10.964;2022-10-22T15:21:18;20.30;99.90
18335;DHT22;9293;49.524;10.964;2022-10-22T15:23:47;20.20;99.90
18335;DHT22;9293;49.524;10.964;2022-10-22T15:26:16;20.00;99.90
18335;DHT22;9293;49.524;10.964;2022-10-22T15:28:57;19.90;99.90
18335;DHT22;9293;49.524;10.964;2022-10-22T15:31:51;19.70;99.90
18335;DHT22;9293;49.524;10.964;2022-10-22T15:34:22;19.60;99.90
18335;DHT22;9293;49.524;10.964;2022-10-22T15:36:52;19.30;99.90
18335;DHT22;9293;49.524;10.964;2022-10-22T15:39:21;19.20;99.90
18335;DHT22;9293;49.524;10.964;2022-10-22T15:41:50;18.90;99.90
18335;DHT22;9293;49.524;10.964;2022-10-22T15:44:20;18.70;99.90
18335;DHT22;9293;49.524;10.964;2022-10-22T15:46:50;18.50;99.90
18335;DHT22;9293;49.524;10.964;2022-10-22T15:49:21;18.30;99.90
18335;DHT22;9293;49.524;10.964;2022-10-22T15:51:50;18.20;99.90
18335;DHT22;9293;49.524;10.964;2022-10-22T15:54:20;18.20;99.90
18335;DHT22;9293;49.524;10.964;2022-10-22T15:56:49;18.10;99.90
18335;DHT22;9293;49.524;10.964;2022-10-22T15:59:17;17.80;99.90
18335;DHT22;9293;49.524;10.964;2022-10-22T16:01:47;17.50;99.90
18335;DHT22;9293;49.524;10.964;2022-10-22T16:04:18;17.30;99.90
18335;DHT22;9293;49.524;10.964;2022-10-22T16:06:50;17.20;99.90
18335;DHT22;9293;49.524;10.964;2022-10-22T16:09:24;17.10;99.90
18335;DHT22;9293;49.524;10.964;2022-10-22T16:11:54;17.00;99.90
18335;DHT22;9293;49.524;10.964;2022-10-22T16:14:22;16.90;99.90
18335;DHT22;9293;49.524;10.964;2022-10-22T16:16:53;16.80;99.90
18335;DHT22;9293;49.524;10.964;2022-10-22T16:19:23;16.70;99.90
18335;DHT22;9293;49.524;10.964;2022-10-22T16:21:54;16.60;99.90
18335;DHT22;9293;49.524;10.964;2022-10-22T16:24:22;16.60;99.90
18335;DHT22;9293;49.524;10.964;2022-10-22T16:26:50;16.50;99.90
18335;DHT22;9293;49.524;10.964;2022-10-22T16:29:20;16.30;99.90
18335;DHT22;9293;49.524;10.964;2022-10-22T16:31:48;16.20;99.90
18335;DHT22;9293;49.524;10.964;2022-10-22T16:34:16;16.10;99.90
18335;DHT22;9293;49.524;10.964;2022-10-22T16:36:44;16.00;99.90
18335;DHT22;9293;49.524;10.964;2022-10-22T16:39:12;16.00;99.90
18335;DHT22;9293;49.524;10.964;2022-10-22T16:41:39;15.90;99.90
18335;DHT22;9293;49.524;10.964;2022-10-22T16:44:08;15.70;99.90
18335;DHT22;9293;49.524;10.964;2022-10-22T16:46:36;15.60;99.90
18335;DHT22;9293;49.524;10.964;2022-10-22T16:49:05;15.50;99.90
18335;DHT22;9293;49.524;10.964;2022-10-22T16:51:34;15.50;99.90
18335;DHT22;9293;49.524;10.964;2022-10-22T16:54:02;15.40;99.90
18335;DHT22;9293;49.524;10.964;2022-10-22T16:56:36;15.40;99.90
18335;DHT22;9293;49.524;10.964;2022-10-22T16:59:05;15.20;99.90
18335;DHT22;9293;49.524;10.964;2022-10-22T17:01:33;15.10;99.90
18335;DHT22;9293;49.524;10.964;2022-10-22T17:04:07;15.10;99.90
18335;DHT22;9293;49.524;10.964;2022-10-22T17:06:35;15.10;99.90
18335;DHT22;9293;49.524;10.964;2022-10-22T17:09:03;15.10;99.90
18335;DHT22;9293;49.524;10.964;2022-10-22T17:11:31;15.00;99.90
18335;DHT22;9293;49.524;10.964;2022-10-22T17:14:08;15.00;99.90
18335;DHT22;9293;49.524;10.964;2022-10-22T17:16:38;14.90;99.90
18335;DHT22;9293;49.524;10.964;2022-10-22T17:19:13;14.80;99.90
18335;DHT22;9293;49.524;10.964;2022-10-22T17:21:42;14.80;99.90
18335;DHT22;9293;49.524;10.964;2022-10-22T17:24:11;14.70;99.90
18335;DHT22;9293;49.524;10.964;2022-10-22T17:26:39;14.60;99.90
18335;DHT22;9293;49.524;10.964;2022-10-22T17:29:07;14.60;99.90
18335;DHT22;9293;49.524;10.964;2022-10-22T17:31:36;14.60;99.90
18335;DHT22;9293;49.524;10.964;2022-10-22T17:34:07;14.60;99.90
18335;DHT22;9293;49.524;10.964;2022-10-22T17:36:36;14.50;99.90
18335;DHT22;9293;49.524;10.964;2022-10-22T17:39:06;14.50;99.90
18335;DHT22;9293;49.524;10.964;2022-10-22T17:41:36;14.40;99.90
18335;DHT22;9293;49.524;10.964;2022-10-22T17:44:06;14.20;99.90
18335;DHT22;9293;49.524;10.964;2022-10-22T17:46:35;14.00;99.90
18335;DHT22;9293;49.524;10.964;2022-10-22T17:49:07;13.90;99.90
18335;DHT22;9293;49.524;10.964;2022-10-22T17:51:39;13.80;99.90